SEA weather

Seattle Tacoma International Airport
Seattle, Washington, United States

Public forecast

Using degrees Fahrenheit for public forecast. Weather courtesy of forecast.io.

METAR (pilot weather report)

Retrieved 2017/12/10 22:53 UTC (8 minutes ago):

KSEA 102253Z 01006KT 10SM CLR 09/00 A3034 RMK AO2 SLP284 T00890000 $

TAF (pilot weather forecast)

Retrieved 2017/12/10 18:42 UTC (4 hours ago):

TAF KSEA 101741Z 1018/1124 02007KT P6SM SCT250 FM110900 04004KT P6SM VCFG SKC TEMPO 1110/1112 3SM BCFG FM111200 04004KT 3SM BCFG FEW001 TEMPO 1114/1118 1/4SM FG VV001 FM112000 VRB04KT 6SM HZ VCFG SKC